createdAt,value
2019-02-27T00:02:35.783Z,15.67
2019-02-27T00:07:41.987Z,13.20
2019-02-27T00:13:06.721Z,18.47
2019-02-27T00:18:12.413Z,13.87
2019-02-27T00:23:36.782Z,20.13
2019-02-27T00:28:55.935Z,14.20
2019-02-27T00:34:00.775Z,15.63
2019-02-27T00:39:18.869Z,15.27
2019-02-27T00:49:59.713Z,14.83
2019-02-27T00:55:16.236Z,16.97
2019-02-27T01:00:21.479Z,10.13
2019-02-27T01:05:45.991Z,15.27
2019-02-27T01:11:32.240Z,17.03
2019-02-27T01:16:37.477Z,14.73
2019-02-27T01:21:42.720Z,14.37
2019-02-27T01:26:47.898Z,11.67
2019-02-27T01:32:12.592Z,11.63
2019-02-27T01:37:17.806Z,14.43
2019-02-27T01:42:34.530Z,13.47
2019-02-27T01:47:51.076Z,11.77
2019-02-27T01:52:56.276Z,14.83
2019-02-27T01:58:20.597Z,11.33
2019-02-27T02:03:39.274Z,16.70
2019-02-27T02:08:55.959Z,14.47
2019-02-27T02:14:44.092Z,16.37
2019-02-27T02:20:27.793Z,21.17
2019-02-27T02:32:20.211Z,19.80
2019-02-27T02:38:03.557Z,20.40
2019-02-27T02:43:20.933Z,20.97
2019-02-27T02:49:07.899Z,19.00
2019-02-27T02:54:54.797Z,21.30
2019-02-27T03:00:39.246Z,13.17
2019-02-27T03:06:16.143Z,14.13
2019-02-27T03:17:54.772Z,11.53
2019-02-27T03:23:51.029Z,10.20
2019-02-27T03:29:37.285Z,13.10
2019-02-27T03:35:28.001Z,10.33
2019-02-27T03:41:00.258Z,12.50
2019-02-27T03:46:43.823Z,11.17
2019-02-27T03:52:27.085Z,10.27
2019-02-27T03:58:26.804Z,10.67
2019-02-27T04:04:00.831Z,9.57
2019-02-27T04:14:43.544Z,12.03
2019-02-27T04:19:48.755Z,11.80
2019-02-27T04:24:56.842Z,8.43
2019-02-27T04:30:50.997Z,9.10
2019-02-27T04:47:14.284Z,9.93
2019-02-27T04:52:21.928Z,7.47
2019-02-27T04:57:33.710Z,9.07
2019-02-27T05:03:03.576Z,7.43
2019-02-27T05:08:08.912Z,7.93
2019-02-27T05:18:51.138Z,8.70
2019-02-27T05:23:56.388Z,8.47
2019-02-27T05:29:01.651Z,9.23
2019-02-27T05:34:07.108Z,7.87
2019-02-27T05:45:02.500Z,11.07
2019-02-27T05:50:09.419Z,5.63
2019-02-27T06:01:14.868Z,8.10
2019-02-27T06:06:20.083Z,5.90
2019-02-27T06:27:56.058Z,11.27
2019-02-27T06:38:18.245Z,8.77
2019-02-27T06:43:35.624Z,8.13
2019-02-27T06:48:43.034Z,8.53
2019-02-27T06:54:06.929Z,9.57
2019-02-27T07:04:48.291Z,8.07
2019-02-27T07:10:13.407Z,13.30
2019-02-27T07:15:29.927Z,9.63
2019-02-27T07:20:35.153Z,11.40
2019-02-27T07:25:42.166Z,7.90
2019-02-27T07:31:06.841Z,11.33
2019-02-27T07:36:24.015Z,11.30
2019-02-27T07:41:29.696Z,12.57
2019-02-27T07:46:35.660Z,14.67
2019-02-27T07:51:48.563Z,10.00
2019-02-27T07:56:59.735Z,14.03
2019-02-27T08:02:05.088Z,13.43
2019-02-27T08:07:12.394Z,11.63
2019-02-27T08:12:41.719Z,12.57
2019-02-27T08:17:58.775Z,15.87
2019-02-27T08:23:23.770Z,11.20
2019-02-27T08:39:28.971Z,19.97
2019-02-27T08:50:13.880Z,19.70
2019-02-27T08:55:44.005Z,11.53
2019-02-27T09:11:37.180Z,10.70
2019-02-27T09:16:49.037Z,15.77
2019-02-27T09:21:54.627Z,12.13
2019-02-27T09:32:16.465Z,10.70
2019-02-27T09:37:23.374Z,10.60
2019-02-27T09:42:28.599Z,10.57
2019-02-27T09:47:33.971Z,17.33
2019-02-27T09:52:50.958Z,15.63
2019-02-27T09:57:56.366Z,11.43
2019-02-27T10:03:01.876Z,12.47
2019-02-27T10:13:44.089Z,11.77
2019-02-27T10:24:17.913Z,12.30
2019-02-27T10:34:40.235Z,14.73
2019-02-27T10:39:51.405Z,18.37
2019-02-27T10:44:56.706Z,13.63
2019-02-27T10:50:13.505Z,13.70
2019-02-27T10:55:18.796Z,11.83
2019-02-27T11:00:35.256Z,16.57
2019-02-27T11:05:55.314Z,11.87
2019-02-27T11:10:58.910Z,16.07
2019-02-27T11:21:21.715Z,14.27
2019-02-27T11:26:27.330Z,14.23
2019-02-27T11:31:45.464Z,11.43
2019-02-27T11:36:50.696Z,12.30
2019-02-27T11:42:13.749Z,15.70
2019-02-27T11:58:31.470Z,12.47
2019-02-27T12:03:36.708Z,11.80
2019-02-27T12:13:58.600Z,15.57
2019-02-27T12:24:53.468Z,13.47
2019-02-27T12:30:21.239Z,12.93
2019-02-27T12:41:18.615Z,13.17
2019-02-27T12:46:24.260Z,12.17
2019-02-27T12:51:29.721Z,14.40
2019-02-27T12:56:35.004Z,13.60
2019-02-27T13:01:40.224Z,12.53
2019-02-27T13:06:45.436Z,14.17
2019-02-27T13:11:50.789Z,12.93
2019-02-27T13:16:56.003Z,13.13
2019-02-27T13:22:01.213Z,14.30
2019-02-27T13:27:09.048Z,13.87
2019-02-27T13:32:13.598Z,11.83
2019-02-27T13:37:19.059Z,15.17
2019-02-27T13:42:24.423Z,12.07
2019-02-27T13:47:31.155Z,12.13
2019-02-27T13:52:37.361Z,11.03
2019-02-27T13:57:42.622Z,11.37
2019-02-27T14:02:47.921Z,14.00
2019-02-27T14:07:57.101Z,11.90
2019-02-27T14:13:01.051Z,11.50
2019-02-27T14:18:06.678Z,11.57
2019-02-27T14:23:14.538Z,13.67
2019-02-27T14:28:21.060Z,7.50
2019-02-27T14:33:26.042Z,8.53
2019-02-27T14:38:31.251Z,8.07
2019-02-27T14:43:36.612Z,9.97
2019-02-27T14:48:42.012Z,8.17
2019-02-27T14:53:55.752Z,9.27
2019-02-27T14:59:06.171Z,14.77
2019-02-27T15:04:32.293Z,7.03
2019-02-27T15:09:57.105Z,8.63
2019-02-27T15:15:22.659Z,9.50
2019-02-27T15:20:47.052Z,10.23
2019-02-27T15:26:16.339Z,8.07
2019-02-27T15:31:39.520Z,10.43
2019-02-27T15:36:57.037Z,8.60
2019-02-27T15:42:03.241Z,9.30
2019-02-27T16:03:45.527Z,7.90
2019-02-27T16:14:13.342Z,12.93
2019-02-27T16:19:37.694Z,10.17
2019-02-27T16:24:43.926Z,11.90
2019-02-27T16:29:59.399Z,16.03
2019-02-27T16:35:19.387Z,11.57
2019-02-27T16:40:36.043Z,9.97
2019-02-27T16:45:52.796Z,9.30
2019-02-27T16:51:00.612Z,10.47
2019-02-27T17:01:46.170Z,16.60
2019-02-27T17:07:10.875Z,14.07
2019-02-27T17:18:12.831Z,16.10
2019-02-27T17:23:46.530Z,13.57
2019-02-27T17:29:03.906Z,15.60
2019-02-27T17:39:39.697Z,17.97
2019-02-27T17:50:22.215Z,23.30
2019-02-27T17:55:27.519Z,20.10
2019-02-27T18:00:51.810Z,24.30
2019-02-27T18:06:16.080Z,21.50
2019-02-27T18:16:37.814Z,17.40
2019-02-27T18:21:43.073Z,16.67
2019-02-27T18:26:51.174Z,18.33
2019-02-27T18:32:20.250Z,18.57
2019-02-27T18:37:25.471Z,20.73
2019-02-27T18:42:42.726Z,21.40
2019-02-27T18:47:49.255Z,12.30
2019-02-27T18:52:54.444Z,25.47
2019-02-27T18:57:59.643Z,22.83
2019-02-27T19:09:00.742Z,22.90
2019-02-27T19:14:30.850Z,24.07
2019-02-27T19:19:50.331Z,30.20
2019-02-27T19:25:15.623Z,28.47
2019-02-27T19:30:41.834Z,30.07
2019-02-27T19:35:57.529Z,31.43
2019-02-27T19:41:08.881Z,29.03
2019-02-27T19:57:28.443Z,15.13
2019-02-27T20:02:34.153Z,25.30
2019-02-27T20:07:39.841Z,20.73
2019-02-27T20:12:56.988Z,24.67
2019-02-27T20:18:07.900Z,24.47
2019-02-27T20:23:26.824Z,20.30
2019-02-27T20:28:33.144Z,19.37
2019-02-27T20:33:55.472Z,40.93
2019-02-27T20:39:12.063Z,44.83
2019-02-27T20:44:17.174Z,28.00
2019-02-27T20:49:22.493Z,22.10
2019-02-27T21:00:21.900Z,19.40
2019-02-27T21:05:48.516Z,30.17
2019-02-27T21:11:13.471Z,28.30
2019-02-27T21:16:19.021Z,27.20
2019-02-27T21:21:36.029Z,17.27
2019-02-27T21:26:54.174Z,17.87
2019-02-27T21:32:12.749Z,18.07
2019-02-27T21:37:18.073Z,19.93
2019-02-27T21:48:13.121Z,17.93
2019-02-27T21:53:29.777Z,18.53
2019-02-27T21:58:35.476Z,18.30
2019-02-27T22:09:13.628Z,20.40
2019-02-27T22:14:34.559Z,18.37
2019-02-27T22:19:59.461Z,14.33
2019-02-27T22:25:15.907Z,15.37
2019-02-27T22:35:58.864Z,16.73
2019-02-27T22:41:04.657Z,19.17
2019-02-27T22:51:27.361Z,18.53
2019-02-27T22:56:50.041Z,21.97
2019-02-27T23:02:32.234Z,21.70
2019-02-27T23:07:37.480Z,21.07
2019-02-27T23:12:42.775Z,16.50
2019-02-27T23:17:48.090Z,18.93
2019-02-27T23:22:53.608Z,35.07
2019-02-27T23:28:00.941Z,17.20
2019-02-27T23:33:25.595Z,22.37
2019-02-27T23:49:18.847Z,22.47
2019-02-27T23:54:44.300Z,17.93
2019-02-27T23:59:55.751Z,31.23
